Time;durP1;ratioP1;P1;durP2;ratioP2;P2;SDS_P1;SDS_P2;PMS_P1;PMS_P2;Temp;Humidity;BMP_temperature;BMP_pressure;BME280_temperature;BME280_humidity;BME280_pressure;Samples;Min_cycle;Max_cycle;Signal;HPM_P1;HPM_P2
2023/08/28 00:00:50;;;;;;;1.77;1.77;;;16.60;99.90;;;;;;5188126;28;20686;-44
2023/08/28 00:03:20;;;;;;;2.07;1.97;;;16.50;99.90;;;;;;5196021;28;20215;-45
2023/08/28 00:05:51;;;;;;;1.60;1.60;;;16.50;99.90;;;;;;5198753;28;20191;-45
2023/08/28 00:08:22;;;;;;;1.70;1.60;;;16.50;99.90;;;;;;5185063;28;20236;-46
2023/08/28 00:10:53;;;;;;;1.43;1.37;;;16.40;99.90;;;;;;5180834;28;20215;-45
2023/08/28 00:13:23;;;;;;;1.60;1.50;;;16.40;99.90;;;;;;5184977;28;20219;-46
2023/08/28 00:15:54;;;;;;;1.20;1.20;;;16.30;99.90;;;;;;5185398;28;20528;-44
2023/08/28 00:18:25;;;;;;;1.43;1.43;;;16.30;99.90;;;;;;5186735;28;20210;-44
2023/08/28 00:20:55;;;;;;;1.10;1.10;;;16.30;99.90;;;;;;5181639;28;20200;-44
2023/08/28 00:23:26;;;;;;;1.17;1.10;;;16.30;99.90;;;;;;5181351;28;20208;-44
2023/08/28 00:25:57;;;;;;;1.63;1.53;;;16.20;99.90;;;;;;5177640;28;20652;-45
2023/08/28 00:28:27;;;;;;;1.20;1.20;;;16.10;99.90;;;;;;5186076;28;20201;-44
2023/08/28 00:30:58;;;;;;;1.27;1.27;;;16.10;99.90;;;;;;5194295;28;20258;-44
2023/08/28 00:33:28;;;;;;;1.57;1.57;;;16.00;99.90;;;;;;5186626;28;20184;-44
2023/08/28 00:35:59;;;;;;;1.00;1.00;;;16.00;99.90;;;;;;5193425;28;20255;-46
2023/08/28 00:38:30;;;;;;;1.10;1.07;;;15.90;99.90;;;;;;5184480;28;20235;-45
2023/08/28 00:41:00;;;;;;;1.50;1.50;;;15.90;99.90;;;;;;5181670;28;20219;-44
2023/08/28 00:43:31;;;;;;;0.93;0.93;;;15.90;99.90;;;;;;5184544;28;20204;-45
2023/08/28 00:46:02;;;;;;;2.00;1.23;;;15.90;99.90;;;;;;5176431;28;20609;-45
2023/08/28 00:48:34;;;;;;;1.33;1.23;;;15.80;99.90;;;;;;5184557;28;20196;-45
2023/08/28 00:51:05;;;;;;;2.83;1.30;;;15.80;99.90;;;;;;5185983;28;20439;-44
2023/08/28 00:53:36;;;;;;;2.10;1.33;;;15.70;99.90;;;;;;5187824;28;20454;-45
2023/08/28 00:56:07;;;;;;;1.60;1.50;;;15.70;99.90;;;;;;5177492;28;20204;-44
2023/08/28 00:58:38;;;;;;;1.40;1.40;;;15.70;99.90;;;;;;5177951;28;20281;-45
2023/08/28 01:01:09;;;;;;;1.47;1.27;;;15.50;99.90;;;;;;5179587;28;20674;-46
2023/08/28 01:03:40;;;;;;;1.03;1.03;;;15.50;99.90;;;;;;5185428;28;20450;-45
2023/08/28 01:06:31;;;;;;;1.03;1.03;;;15.50;99.90;;;;;;5168450;28;20188;-44
2023/08/28 01:09:31;;;;;;;1.37;1.20;;;15.40;99.90;;;;;;5179833;28;20279;-44
2023/08/28 01:12:34;;;;;;;1.30;1.30;;;15.40;99.90;;;;;;5183639;28;20443;-46
2023/08/28 01:15:13;;;;;;;1.10;1.10;;;15.30;99.90;;;;;;5185035;28;20453;-44
2023/08/28 01:17:46;;;;;;;1.40;1.30;;;15.20;99.90;;;;;;5198109;28;20461;-44
2023/08/28 01:20:19;;;;;;;1.20;1.20;;;15.10;99.90;;;;;;5184203;28;20439;-46
2023/08/28 01:23:07;;;;;;;0.70;0.70;;;15.10;99.90;;;;;;5179830;28;20462;-46
2023/08/28 01:25:39;;;;;;;0.90;0.90;;;15.10;99.90;;;;;;5191297;28;22688;-46
2023/08/28 01:28:09;;;;;;;1.07;1.07;;;15.00;99.90;;;;;;5186263;28;20503;-45
2023/08/28 01:30:40;;;;;;;1.13;1.07;;;15.00;99.90;;;;;;5183024;28;20443;-46
2023/08/28 01:33:11;;;;;;;1.43;1.27;;;15.00;99.90;;;;;;5189345;28;20192;-45
2023/08/28 01:35:42;;;;;;;0.80;0.80;;;14.90;99.90;;;;;;5186270;28;21099;-45
2023/08/28 01:38:34;;;;;;;1.20;1.20;;;14.80;99.90;;;;;;5191203;28;20738;-45
2023/08/28 01:41:10;;;;;;;2.23;1.40;;;14.80;99.90;;;;;;5192383;28;20450;-44
2023/08/28 01:43:47;;;;;;;1.30;1.30;;;14.80;99.90;;;;;;5171245;28;20482;-45
2023/08/28 01:46:19;;;;;;;1.23;1.23;;;14.80;99.90;;;;;;5181745;28;21530;-45
2023/08/28 01:48:53;;;;;;;0.80;0.80;;;14.70;99.90;;;;;;5195621;28;20470;-45
2023/08/28 01:51:24;;;;;;;1.00;0.87;;;14.70;99.90;;;;;;5183328;28;20521;-44
2023/08/28 01:53:55;;;;;;;0.80;0.80;;;14.60;99.90;;;;;;5186595;28;20539;-45
2023/08/28 01:56:25;;;;;;;2.70;1.70;;;14.60;99.90;;;;;;5184798;28;20195;-45
2023/08/28 01:59:01;;;;;;;1.70;1.20;;;14.60;99.90;;;;;;5184441;28;20203;-44
2023/08/28 02:01:31;;;;;;;1.03;1.00;;;14.50;99.90;;;;;;5184612;28;20188;-44
2023/08/28 02:04:02;;;;;;;1.83;1.30;;;14.50;99.90;;;;;;5192224;28;20934;-44
2023/08/28 02:06:33;;;;;;;1.67;1.67;;;14.50;99.90;;;;;;5183252;28;20216;-44
2023/08/28 02:09:04;;;;;;;1.23;1.23;;;14.40;99.90;;;;;;5191088;28;20184;-44
2023/08/28 02:11:35;;;;;;;0.97;0.97;;;14.40;99.90;;;;;;5187710;28;20215;-44
2023/08/28 02:14:06;;;;;;;1.43;1.43;;;14.30;99.90;;;;;;5194827;28;20446;-45
2023/08/28 02:16:39;;;;;;;1.57;1.07;;;14.20;99.90;;;;;;5188879;28;20821;-44
2023/08/28 02:19:10;;;;;;;1.20;1.10;;;14.20;99.90;;;;;;5189187;28;20641;-45
2023/08/28 02:21:40;;;;;;;2.10;1.10;;;14.20;99.90;;;;;;5190887;28;20466;-45
2023/08/28 02:24:11;;;;;;;1.73;1.60;;;14.20;99.90;;;;;;5189138;28;20168;-44
2023/08/28 02:26:42;;;;;;;1.53;1.53;;;14.10;99.90;;;;;;5179379;28;20185;-44
2023/08/28 02:29:12;;;;;;;3.57;1.80;;;14.10;99.90;;;;;;5192556;28;20183;-45
2023/08/28 02:31:43;;;;;;;2.10;1.43;;;14.10;99.90;;;;;;5168171;28;20195;-45
2023/08/28 02:34:13;;;;;;;1.67;1.57;;;14.10;99.90;;;;;;5190626;28;20212;-44
2023/08/28 02:36:44;;;;;;;4.07;1.40;;;14.00;99.90;;;;;;5197012;28;20192;-44
2023/08/28 02:39:15;;;;;;;1.03;1.03;;;14.00;99.90;;;;;;5184148;28;20181;-44
2023/08/28 02:41:45;;;;;;;1.13;0.90;;;14.00;99.90;;;;;;5186702;28;20179;-45
2023/08/28 02:44:16;;;;;;;1.80;1.70;;;14.00;99.90;;;;;;5186337;28;20659;-44
2023/08/28 02:46:46;;;;;;;1.97;1.70;;;13.90;99.90;;;;;;5188267;28;20196;-44
2023/08/28 02:49:17;;;;;;;1.50;1.40;;;13.90;99.90;;;;;;5190797;28;20184;-45
2023/08/28 02:51:48;;;;;;;1.40;1.30;;;13.90;99.90;;;;;;5187693;28;20431;-43
2023/08/28 02:54:19;;;;;;;2.67;1.30;;;13.90;99.90;;;;;;5185804;28;20231;-43
2023/08/28 02:56:49;;;;;;;2.00;1.77;;;13.90;99.90;;;;;;5182445;28;20664;-47
2023/08/28 02:59:20;;;;;;;1.23;1.13;;;13.90;99.90;;;;;;5184833;28;20204;-45
2023/08/28 03:01:50;;;;;;;1.37;1.37;;;13.80;99.90;;;;;;5178752;28;20184;-45
2023/08/28 03:04:21;;;;;;;1.53;1.40;;;13.90;99.90;;;;;;5180124;28;20242;-45
2023/08/28 03:06:52;;;;;;;3.37;1.57;;;13.80;99.90;;;;;;5189131;28;20216;-45
2023/08/28 03:09:22;;;;;;;1.63;1.60;;;13.80;99.90;;;;;;5186983;28;20185;-44
2023/08/28 03:11:53;;;;;;;1.40;1.40;;;13.70;99.90;;;;;;5193709;28;20192;-44
2023/08/28 03:14:23;;;;;;;1.33;1.33;;;13.70;99.90;;;;;;5186409;28;20188;-44
2023/08/28 03:16:54;;;;;;;2.03;1.97;;;13.70;99.90;;;;;;5188755;28;20664;-46
2023/08/28 03:19:24;;;;;;;1.90;1.80;;;13.70;99.90;;;;;;5180428;28;20267;-45
2023/08/28 03:21:55;;;;;;;2.50;2.30;;;13.70;99.90;;;;;;5190626;28;20242;-44
2023/08/28 03:24:26;;;;;;;1.93;1.83;;;13.70;99.90;;;;;;5187658;28;20909;-44
2023/08/28 03:26:56;;;;;;;1.73;1.40;;;13.80;99.90;;;;;;5183701;28;20286;-44
2023/08/28 03:29:27;;;;;;;1.60;1.50;;;13.80;99.90;;;;;;5187412;28;20187;-44
2023/08/28 03:31:58;;;;;;;1.47;1.37;;;13.80;99.90;;;;;;5183382;28;20196;-45
2023/08/28 03:34:28;;;;;;;4.67;2.10;;;13.80;99.90;;;;;;5184555;28;20192;-44
2023/08/28 03:36:59;;;;;;;2.63;1.23;;;13.70;99.90;;;;;;5190162;28;20470;-45
2023/08/28 03:39:29;;;;;;;3.50;1.63;;;13.70;99.90;;;;;;5189741;28;20186;-45
2023/08/28 03:42:00;;;;;;;2.50;2.30;;;13.70;99.90;;;;;;5190315;28;20204;-43
2023/08/28 03:44:31;;;;;;;2.03;1.67;;;13.70;99.90;;;;;;5185944;28;20184;-45
2023/08/28 03:47:01;;;;;;;2.40;2.30;;;13.70;99.90;;;;;;5183791;28;20204;-45
2023/08/28 03:49:32;;;;;;;2.37;2.20;;;13.70;99.90;;;;;;5187820;28;20192;-45
2023/08/28 03:52:03;;;;;;;2.60;2.40;;;13.70;99.90;;;;;;5186777;28;20219;-44
2023/08/28 03:54:33;;;;;;;2.00;1.60;;;13.70;99.90;;;;;;5182387;28;20706;-45
2023/08/28 03:57:06;;;;;;;2.77;2.40;;;13.70;99.90;;;;;;5175859;28;20239;-45
2023/08/28 03:59:36;;;;;;;3.70;1.90;;;13.70;99.90;;;;;;5180713;28;20184;-45
2023/08/28 04:02:07;;;;;;;3.17;2.10;;;13.70;99.90;;;;;;5181874;28;21933;-45
2023/08/28 04:04:37;;;;;;;2.67;2.30;;;13.70;99.90;;;;;;5186084;28;20199;-44
2023/08/28 04:07:08;;;;;;;2.40;2.00;;;13.60;99.90;;;;;;5189531;28;20264;-45
2023/08/28 04:09:39;;;;;;;2.37;2.23;;;13.60;99.90;;;;;;5180587;28;20710;-47
2023/08/28 04:12:09;;;;;;;2.70;2.60;;;13.60;99.90;;;;;;5183896;28;20180;-45
2023/08/28 04:14:40;;;;;;;3.03;2.83;;;13.60;99.90;;;;;;5189767;28;20196;-44
2023/08/28 04:17:10;;;;;;;2.67;2.47;;;13.70;99.90;;;;;;5184976;28;20200;-44
2023/08/28 04:19:41;;;;;;;4.03;2.03;;;13.70;99.90;;;;;;5175697;28;20189;-44
2023/08/28 04:22:12;;;;;;;2.77;2.57;;;13.70;99.90;;;;;;5182172;28;20680;-44
2023/08/28 04:24:44;;;;;;;4.13;2.83;;;13.70;99.90;;;;;;5184134;28;20524;-44
2023/08/28 04:27:14;;;;;;;2.83;2.70;;;13.80;99.90;;;;;;5186587;28;20200;-45
2023/08/28 04:29:45;;;;;;;3.00;2.90;;;13.90;99.90;;;;;;5181844;28;20807;-45
2023/08/28 04:32:15;;;;;;;2.70;2.50;;;13.90;99.90;;;;;;5180511;28;20215;-45
2023/08/28 04:34:46;;;;;;;2.40;2.30;;;14.10;99.90;;;;;;5176462;28;21096;-44
2023/08/28 04:37:17;;;;;;;5.07;3.50;;;14.20;99.90;;;;;;5179519;28;20200;-44
2023/08/28 04:39:47;;;;;;;3.10;2.90;;;14.30;99.90;;;;;;5180326;28;20238;-43
2023/08/28 04:42:18;;;;;;;2.00;2.00;;;14.30;99.90;;;;;;5173492;28;20277;-45
2023/08/28 04:44:48;;;;;;;3.20;3.00;;;14.40;99.90;;;;;;5171685;28;20204;-44
2023/08/28 04:47:19;;;;;;;4.67;3.77;;;14.40;99.90;;;;;;5182457;28;20196;-44
2023/08/28 04:49:50;;;;;;;5.50;2.90;;;14.50;99.90;;;;;;5182089;28;20227;-44
2023/08/28 04:52:22;;;;;;;5.80;2.50;;;14.60;99.90;;;;;;5184533;28;20203;-44
2023/08/28 04:54:52;;;;;;;3.83;3.43;;;14.70;99.90;;;;;;5191972;28;20180;-45
2023/08/28 04:57:23;;;;;;;4.93;2.70;;;14.80;99.90;;;;;;5190256;28;21046;-45
2023/08/28 04:59:53;;;;;;;18.20;3.97;;;15.00;99.90;;;;;;5179825;28;20282;-44
2023/08/28 05:02:24;;;;;;;6.63;3.53;;;15.10;99.90;;;;;;5181405;28;20219;-45
2023/08/28 05:04:55;;;;;;;3.13;2.93;;;15.20;99.90;;;;;;5187382;28;20200;-44
2023/08/28 05:07:25;;;;;;;3.30;2.80;;;15.30;99.90;;;;;;5186261;28;20219;-44
2023/08/28 05:09:56;;;;;;;4.93;3.23;;;15.30;99.90;;;;;;5182896;28;20227;-45
2023/08/28 05:12:26;;;;;;;5.50;3.20;;;15.40;99.90;;;;;;5167040;28;20199;-44
2023/08/28 05:14:57;;;;;;;7.57;3.17;;;15.50;99.90;;;;;;5181799;28;20188;-44
2023/08/28 05:17:28;;;;;;;2.57;2.43;;;15.60;99.90;;;;;;5182783;28;20216;-46
2023/08/28 05:19:58;;;;;;;4.20;2.80;;;15.90;99.90;;;;;;5177444;28;20558;-45
2023/08/28 05:22:29;;;;;;;5.57;3.30;;;16.40;99.90;;;;;;5181341;28;20208;-46
2023/08/28 05:25:00;;;;;;;4.33;3.20;;;17.30;99.90;;;;;;5180271;28;20651;-45
2023/08/28 05:27:30;;;;;;;3.17;2.97;;;18.40;99.90;;;;;;5185628;28;20346;-45
2023/08/28 05:30:01;;;;;;;3.00;2.90;;;18.80;99.90;;;;;;5187737;28;20662;-45
2023/08/28 05:32:32;;;;;;;3.20;2.90;;;19.60;99.90;;;;;;5184436;28;20703;-44
2023/08/28 05:35:04;;;;;;;3.90;2.63;;;20.60;99.90;;;;;;5156072;28;20656;-46
2023/08/28 05:37:34;;;;;;;6.33;3.20;;;21.50;99.90;;;;;;5175553;28;21032;-47
2023/08/28 05:40:06;;;;;;;3.70;2.87;;;22.40;99.90;;;;;;5180536;28;20496;-45
2023/08/28 05:42:36;;;;;;;2.53;2.43;;;24.00;94.90;;;;;;5183844;28;20207;-46
2023/08/28 05:45:07;;;;;;;2.93;2.80;;;25.00;88.80;;;;;;5185976;28;20439;-45
2023/08/28 05:47:40;;;;;;;2.63;2.53;;;25.00;79.50;;;;;;5179029;28;20880;-44
2023/08/28 05:50:10;;;;;;;3.70;3.03;;;24.50;77.90;;;;;;5195795;28;20529;-47
2023/08/28 05:52:41;;;;;;;3.13;2.70;;;23.80;78.80;;;;;;5182347;28;20565;-46
2023/08/28 05:55:11;;;;;;;2.20;2.10;;;23.10;79.90;;;;;;5181219;28;20173;-45
2023/08/28 05:57:42;;;;;;;2.60;2.50;;;22.10;81.90;;;;;;5178562;28;20238;-45
2023/08/28 06:00:14;;;;;;;5.93;2.73;;;20.90;86.20;;;;;;5183807;28;20177;-44
2023/08/28 06:02:44;;;;;;;2.80;2.60;;;20.20;90.40;;;;;;5187756;28;20208;-45
2023/08/28 06:05:15;;;;;;;3.33;3.07;;;19.80;92.00;;;;;;5184654;28;20985;-45
2023/08/28 06:07:46;;;;;;;3.80;2.93;;;19.80;93.50;;;;;;5188626;28;20192;-46
2023/08/28 06:10:19;;;;;;;2.50;2.30;;;20.10;94.60;;;;;;5187294;28;20189;-44
2023/08/28 06:12:50;;;;;;;4.30;2.90;;;21.40;93.10;;;;;;5185227;28;20184;-46
2023/08/28 06:15:21;;;;;;;2.80;2.40;;;22.60;90.10;;;;;;5186613;28;20435;-45
2023/08/28 06:17:52;;;;;;;6.33;2.77;;;23.40;87.20;;;;;;5192753;28;20971;-44
2023/08/28 06:20:22;;;;;;;6.60;2.50;;;23.60;82.70;;;;;;5184781;28;20196;-46
2023/08/28 06:22:53;;;;;;;4.90;2.77;;;23.30;81.60;;;;;;5187558;28;20231;-45
2023/08/28 06:25:23;;;;;;;2.50;2.30;;;23.90;82.20;;;;;;5185629;28;20243;-46
2023/08/28 06:27:54;;;;;;;2.43;2.23;;;25.10;75.10;;;;;;5186453;28;20210;-45
2023/08/28 06:30:25;;;;;;;1.90;1.80;;;25.30;72.40;;;;;;5193487;28;20181;-46
2023/08/28 06:32:57;;;;;;;3.73;2.20;;;26.60;70.30;;;;;;5197875;28;20180;-45
2023/08/28 06:35:28;;;;;;;2.13;2.03;;;27.50;65.30;;;;;;5175908;28;20185;-45
2023/08/28 06:37:59;;;;;;;1.90;1.80;;;28.70;59.20;;;;;;5185517;28;20505;-45
2023/08/28 06:40:29;;;;;;;5.93;3.87;;;29.60;56.30;;;;;;5188520;28;20438;-45
2023/08/28 06:43:00;;;;;;;3.90;2.47;;;29.90;52.40;;;;;;5190762;28;20290;-45
2023/08/28 06:45:31;;;;;;;1.23;1.23;;;30.60;50.60;;;;;;5189361;28;20203;-45
2023/08/28 06:48:02;;;;;;;2.20;2.10;;;31.20;48.50;;;;;;5199030;28;20275;-46
2023/08/28 06:50:34;;;;;;;2.13;1.93;;;32.20;45.90;;;;;;5194745;28;20850;-45
2023/08/28 06:53:05;;;;;;;1.87;1.77;;;33.00;42.90;;;;;;5199594;28;20177;-45
2023/08/28 06:55:36;;;;;;;2.27;2.13;;;33.30;42.30;;;;;;5196530;28;20787;-44
2023/08/28 06:58:06;;;;;;;5.50;2.07;;;33.70;40.60;;;;;;5183650;28;20680;-45
2023/08/28 07:00:37;;;;;;;2.30;2.20;;;33.80;40.10;;;;;;5186286;28;20230;-46
2023/08/28 07:03:09;;;;;;;3.23;1.27;;;33.90;39.00;;;;;;5187070;28;20630;-46
2023/08/28 07:05:40;;;;;;;1.80;1.70;;;33.90;39.50;;;;;;5184603;28;20462;-46
2023/08/28 07:08:10;;;;;;;3.07;1.80;;;34.70;38.60;;;;;;5178245;28;20466;-45
2023/08/28 07:10:42;;;;;;;1.53;1.20;;;34.40;37.40;;;;;;5191302;28;20203;-45
2023/08/28 07:13:13;;;;;;;2.83;0.93;;;34.00;37.60;;;;;;5181977;28;20663;-46
2023/08/28 07:15:43;;;;;;;4.63;1.73;;;34.60;37.20;;;;;;5183524;28;20450;-46
2023/08/28 07:18:14;;;;;;;1.90;1.80;;;34.00;36.70;;;;;;5187026;28;20206;-45
2023/08/28 07:20:45;;;;;;;3.17;1.50;;;33.90;36.90;;;;;;5175489;28;20275;-45
2023/08/28 07:23:15;;;;;;;1.53;1.53;;;34.30;36.30;;;;;;5172618;28;20677;-45
2023/08/28 07:25:46;;;;;;;1.33;1.33;;;35.10;36.00;;;;;;5168261;28;20230;-46
2023/08/28 07:28:18;;;;;;;1.47;1.43;;;35.40;35.50;;;;;;5174958;28;20198;-45
2023/08/28 07:30:48;;;;;;;7.53;1.60;;;34.00;36.80;;;;;;5161439;28;20184;-47
2023/08/28 07:33:19;;;;;;;1.37;1.17;;;32.40;38.20;;;;;;5185493;28;20438;-46
2023/08/28 07:35:50;;;;;;;3.40;1.20;;;30.10;40.10;;;;;;5185769;28;20260;-45
2023/08/28 07:38:20;;;;;;;3.63;1.57;;;28.70;43.70;;;;;;5185878;28;20208;-45
2023/08/28 07:40:51;;;;;;;5.23;1.50;;;27.70;45.20;;;;;;5198342;28;20620;-46
2023/08/28 07:43:22;;;;;;;1.17;1.07;;;26.10;47.90;;;;;;5181952;28;20308;-45
2023/08/28 07:45:52;;;;;;;1.67;1.57;;;25.00;50.90;;;;;;5187752;28;20810;-44
2023/08/28 07:48:23;;;;;;;1.30;1.30;;;24.90;51.80;;;;;;5180350;28;20260;-46
2023/08/28 07:50:54;;;;;;;0.73;0.73;;;24.40;52.00;;;;;;5182648;28;20272;-45
2023/08/28 07:53:24;;;;;;;3.33;1.07;;;23.40;54.00;;;;;;5182854;28;20451;-44
2023/08/28 07:55:55;;;;;;;6.40;1.80;;;22.90;55.10;;;;;;5179173;28;20207;-46
2023/08/28 07:58:26;;;;;;;1.70;1.60;;;22.20;57.00;;;;;;5176876;28;20655;-44
2023/08/28 08:00:56;;;;;;;10.70;1.60;;;21.70;58.10;;;;;;5176460;28;20203;-45
2023/08/28 08:03:27;;;;;;;1.17;1.07;;;21.30;59.40;;;;;;5178531;28;20390;-45
2023/08/28 08:05:58;;;;;;;1.17;1.00;;;21.10;60.60;;;;;;5177479;28;20606;-45
2023/08/28 08:08:29;;;;;;;3.23;1.23;;;21.20;61.00;;;;;;5177424;28;20216;-45
2023/08/28 08:10:59;;;;;;;1.60;1.50;;;21.30;60.90;;;;;;5178637;28;20192;-46
2023/08/28 08:13:30;;;;;;;1.60;1.50;;;21.20;61.50;;;;;;5190470;28;20177;-45
2023/08/28 08:16:00;;;;;;;7.30;1.03;;;21.50;61.70;;;;;;5183911;28;20218;-46
2023/08/28 08:18:31;;;;;;;1.50;1.20;;;22.20;60.50;;;;;;5183760;28;20204;-45
2023/08/28 08:21:03;;;;;;;1.20;1.10;;;22.50;59.20;;;;;;5179813;28;20638;-45
2023/08/28 08:23:33;;;;;;;2.70;1.67;;;21.90;60.00;;;;;;5178444;28;20522;-45
2023/08/28 08:26:04;;;;;;;2.33;1.20;;;21.70;60.80;;;;;;5177528;28;20435;-45
2023/08/28 08:28:34;;;;;;;4.00;1.57;;;22.00;61.40;;;;;;5179748;28;20538;-46
2023/08/28 08:31:05;;;;;;;2.30;1.20;;;21.60;61.30;;;;;;5175800;28;20637;-44
2023/08/28 08:33:36;;;;;;;1.00;1.00;;;21.60;61.20;;;;;;5179969;28;20181;-46
2023/08/28 08:36:06;;;;;;;20.20;17.73;;;21.40;62.40;;;;;;5160326;28;20306;-45
2023/08/28 08:38:37;;;;;;;1.80;1.70;;;21.80;62.70;;;;;;5191700;28;21747;-44
2023/08/28 08:41:09;;;;;;;2.50;1.23;;;22.20;62.30;;;;;;5181847;28;20192;-48
2023/08/28 08:43:39;;;;;;;2.00;1.10;;;22.60;60.40;;;;;;5178297;28;20293;-46
2023/08/28 08:46:11;;;;;;;1.23;1.13;;;22.40;60.30;;;;;;5179625;28;20435;-46
2023/08/28 08:48:43;;;;;;;2.53;1.33;;;22.20;61.00;;;;;;5174920;28;20283;-44
2023/08/28 08:51:16;;;;;;;3.50;1.10;;;22.20;61.30;;;;;;5183555;28;20894;-45
2023/08/28 08:53:53;;;;;;;2.47;1.50;;;22.20;60.80;;;;;;5184787;28;20445;-45
2023/08/28 08:56:23;;;;;;;5.07;1.73;;;21.90;61.80;;;;;;5187694;28;20436;-46
2023/08/28 08:58:55;;;;;;;6.90;1.63;;;21.70;61.90;;;;;;5183062;28;20861;-45
2023/08/28 09:01:30;;;;;;;13.33;1.20;;;21.90;62.10;;;;;;5180455;28;20216;-47
2023/08/28 09:04:02;;;;;;;2.17;0.83;;;21.70;61.20;;;;;;5183633;28;20474;-45
2023/08/28 09:06:34;;;;;;;5.03;1.30;;;21.40;61.30;;;;;;5177542;28;20466;-46
2023/08/28 09:09:07;;;;;;;1.60;1.03;;;20.80;63.40;;;;;;5187182;28;20934;-45
2023/08/28 09:11:40;;;;;;;1.50;1.10;;;20.90;64.50;;;;;;5183203;28;20435;-46
2023/08/28 09:14:11;;;;;;;0.90;0.83;;;21.00;64.80;;;;;;5176508;28;20435;-45
2023/08/28 09:16:42;;;;;;;0.80;0.80;;;21.10;64.70;;;;;;5182695;28;20474;-45
2023/08/28 09:19:12;;;;;;;6.63;3.97;;;21.20;65.10;;;;;;5184395;28;20503;-46
2023/08/28 09:21:47;;;;;;;2.63;2.17;;;21.10;65.00;;;;;;5180048;28;20185;-45
2023/08/28 09:24:22;;;;;;;1.40;1.30;;;21.00;65.70;;;;;;5178248;28;20210;-45
2023/08/28 09:26:53;;;;;;;5.90;2.17;;;21.00;65.90;;;;;;5180217;28;20491;-45
2023/08/28 09:29:24;;;;;;;3.07;1.30;;;20.80;66.20;;;;;;5176626;28;20434;-49
2023/08/28 09:32:03;;;;;;;1.80;1.60;;;20.60;68.20;;;;;;5178730;28;20859;-45
2023/08/28 09:34:40;;;;;;;1.43;1.30;;;20.50;67.70;;;;;;5176401;28;20185;-46
2023/08/28 09:37:12;;;;;;;2.53;1.17;;;20.30;68.20;;;;;;5179323;28;20443;-47
2023/08/28 09:39:55;;;;;;;2.73;1.37;;;20.30;68.40;;;;;;5198568;28;20982;-45
2023/08/28 09:42:26;;;;;;;1.30;1.20;;;20.40;69.00;;;;;;5180847;28;20467;-44
2023/08/28 09:44:57;;;;;;;0.93;0.93;;;20.40;69.20;;;;;;5182335;28;20513;-46
2023/08/28 09:47:28;;;;;;;3.50;1.77;;;20.30;69.50;;;;;;5182242;28;20450;-45
2023/08/28 09:49:58;;;;;;;4.53;1.30;;;20.40;69.90;;;;;;5173247;28;20184;-47
2023/08/28 09:52:29;;;;;;;1.13;0.97;;;20.50;70.10;;;;;;5184787;28;20283;-46
2023/08/28 09:55:04;;;;;;;1.90;0.87;;;20.70;68.80;;;;;;5194002;28;20641;-47
2023/08/28 09:57:34;;;;;;;9.67;1.10;;;20.70;68.30;;;;;;5184823;28;20238;-44
2023/08/28 10:00:06;;;;;;;2.83;1.67;;;20.80;68.30;;;;;;5186199;28;20444;-45
2023/08/28 10:02:38;;;;;;;1.90;1.60;;;21.00;68.30;;;;;;5183880;28;20549;-49
2023/08/28 10:05:09;;;;;;;1.30;0.90;;;21.00;67.80;;;;;;5186642;28;20951;-45
2023/08/28 10:07:42;;;;;;;2.23;1.17;;;20.90;67.40;;;;;;5184228;28;20786;-46
2023/08/28 10:10:15;;;;;;;7.20;3.40;;;21.00;68.20;;;;;;5182788;28;20215;-46
2023/08/28 10:12:47;;;;;;;4.93;3.23;;;21.10;67.70;;;;;;5198916;28;20441;-45
2023/08/28 10:15:18;;;;;;;3.90;1.97;;;21.00;67.80;;;;;;5164253;28;20443;-45
2023/08/28 10:17:50;;;;;;;1.50;1.40;;;21.10;68.00;;;;;;5182214;28;23493;-45
2023/08/28 10:20:22;;;;;;;1.37;1.10;;;21.30;66.90;;;;;;5186358;28;20442;-45
2023/08/28 10:22:53;;;;;;;1.27;1.13;;;21.20;66.80;;;;;;5183202;28;20459;-45
2023/08/28 10:25:29;;;;;;;0.77;0.77;;;21.20;66.80;;;;;;5184838;28;20751;-45
2023/08/28 10:28:01;;;;;;;6.93;1.60;;;21.40;67.70;;;;;;5181693;28;23216;-47
2023/08/28 10:30:34;;;;;;;7.67;4.33;;;21.70;67.40;;;;;;5176718;28;20947;-45
2023/08/28 10:33:06;;;;;;;7.40;4.70;;;22.10;66.10;;;;;;5175590;28;20799;-44
2023/08/28 10:35:40;;;;;;;2.03;1.60;;;22.40;63.90;;;;;;5177697;28;20432;-45
2023/08/28 10:38:11;;;;;;;2.90;1.40;;;22.40;64.40;;;;;;5175704;28;20455;-46
2023/08/28 10:40:42;;;;;;;2.20;1.50;;;22.50;65.60;;;;;;5162186;28;20439;-46
2023/08/28 10:43:13;;;;;;;1.80;1.70;;;22.50;64.60;;;;;;5167902;28;20982;-46
2023/08/28 10:45:45;;;;;;;1.70;1.60;;;22.40;64.50;;;;;;5166102;28;20724;-45
2023/08/28 10:48:16;;;;;;;1.27;1.17;;;22.40;64.50;;;;;;5177995;28;20770;-48
2023/08/28 10:50:47;;;;;;;6.43;2.13;;;22.40;64.40;;;;;;5174595;28;20540;-44
2023/08/28 10:53:20;;;;;;;1.03;0.73;;;22.40;64.80;;;;;;5186142;28;20518;-46
2023/08/28 10:55:53;;;;;;;1.37;0.90;;;22.60;64.20;;;;;;5184231;28;20220;-45
2023/08/28 10:58:28;;;;;;;1.53;1.37;;;22.80;62.40;;;;;;5175691;28;20474;-46
2023/08/28 11:01:14;;;;;;;12.83;7.40;;;22.90;61.80;;;;;;5180722;28;20521;-45
2023/08/28 11:03:51;;;;;;;2.23;1.80;;;22.40;62.80;;;;;;5181977;28;20496;-44
2023/08/28 11:06:43;;;;;;;2.33;1.47;;;22.30;64.40;;;;;;5182198;28;20477;-46
2023/08/28 11:09:29;;;;;;;5.17;2.70;;;22.40;64.50;;;;;;5181910;28;20442;-45
2023/08/28 11:12:00;;;;;;;1.20;1.20;;;22.30;64.30;;;;;;5179808;28;20471;-45
2023/08/28 11:15:03;;;;;;;5.40;3.23;;;21.90;63.80;;;;;;5177535;28;20452;-45
2023/08/28 11:17:34;;;;;;;24.43;9.00;;;21.50;65.20;;;;;;5166946;28;20217;-46
2023/08/28 11:20:07;;;;;;;2.63;1.50;;;21.70;64.50;;;;;;5188445;28;20440;-46
2023/08/28 11:22:41;;;;;;;2.37;1.70;;;21.70;64.50;;;;;;5190051;28;20212;-43
2023/08/28 11:25:14;;;;;;;1.83;1.13;;;21.70;65.20;;;;;;5177473;28;20574;-46
2023/08/28 11:27:54;;;;;;;1.13;1.13;;;21.70;66.50;;;;;;5174528;28;20546;-47
2023/08/28 11:30:25;;;;;;;4.30;1.83;;;21.60;66.10;;;;;;5183145;28;20478;-45
2023/08/28 11:32:56;;;;;;;7.27;1.70;;;21.60;66.50;;;;;;5176621;28;20534;-46
2023/08/28 11:35:27;;;;;;;4.53;2.60;;;21.70;65.30;;;;;;5176326;28;20535;-46
2023/08/28 11:37:58;;;;;;;1.60;1.50;;;21.60;65.40;;;;;;5175957;28;20205;-44
2023/08/28 11:40:28;;;;;;;3.07;1.50;;;21.60;65.80;;;;;;5173194;28;20205;-45
2023/08/28 11:43:06;;;;;;;1.20;1.10;;;21.40;66.60;;;;;;5173697;28;20205;-46
2023/08/28 11:45:36;;;;;;;1.07;1.07;;;21.40;66.50;;;;;;5170328;28;20606;-44
2023/08/28 11:48:07;;;;;;;3.40;1.07;;;21.40;66.80;;;;;;5176857;28;21548;-47
2023/08/28 11:50:37;;;;;;;2.53;0.80;;;21.60;66.70;;;;;;5179729;28;20246;-46
2023/08/28 11:53:08;;;;;;;3.10;2.00;;;21.40;65.10;;;;;;5171856;28;20231;-45
2023/08/28 11:55:39;;;;;;;3.13;2.93;;;21.30;66.00;;;;;;5176035;28;20676;-47
2023/08/28 11:58:09;;;;;;;1.87;1.77;;;21.40;65.40;;;;;;5179039;28;20216;-45
2023/08/28 12:00:41;;;;;;;4.43;1.93;;;21.00;66.10;;;;;;5186763;28;20194;-46
2023/08/28 12:03:18;;;;;;;5.50;1.87;;;21.30;66.40;;;;;;5186361;28;20296;-45
2023/08/28 12:05:49;;;;;;;3.70;2.63;;;21.60;65.70;;;;;;5179621;28;20762;-45
2023/08/28 12:08:21;;;;;;;2.10;1.97;;;21.80;65.80;;;;;;5176510;28;20456;-45
2023/08/28 12:10:51;;;;;;;1.27;1.17;;;21.80;64.60;;;;;;5178067;28;20541;-45
2023/08/28 12:13:22;;;;;;;0.90;0.90;;;21.90;65.40;;;;;;5194885;28;20438;-45
2023/08/28 12:16:17;;;;;;;4.37;1.70;;;21.70;65.60;;;;;;5170573;28;20181;-46
2023/08/28 12:18:52;;;;;;;3.90;1.13;;;22.00;66.00;;;;;;5196016;28;20211;-46
2023/08/28 12:21:34;;;;;;;1.47;1.37;;;22.20;63.70;;;;;;5191023;28;20530;-45
2023/08/28 12:24:10;;;;;;;4.33;1.90;;;21.80;63.90;;;;;;5200555;28;20551;-46
2023/08/28 12:26:43;;;;;;;3.07;2.37;;;22.00;64.60;;;;;;5187015;28;20419;-46
2023/08/28 12:29:14;;;;;;;1.23;1.23;;;22.20;64.40;;;;;;5186496;28;20415;-45
2023/08/28 12:31:47;;;;;;;9.70;3.20;;;22.20;64.30;;;;;;5194336;28;20438;-46
2023/08/28 12:34:19;;;;;;;7.63;4.70;;;22.40;63.30;;;;;;5181249;28;20188;-46
2023/08/28 12:36:49;;;;;;;2.30;1.63;;;22.30;63.30;;;;;;5184261;28;20657;-45
2023/08/28 12:39:20;;;;;;;1.63;1.53;;;22.10;63.00;;;;;;5198371;28;20574;-46
2023/08/28 12:41:52;;;;;;;1.90;1.33;;;21.90;62.70;;;;;;5178283;28;20191;-46
2023/08/28 12:44:24;;;;;;;1.13;1.00;;;22.00;63.60;;;;;;5182904;28;20220;-45
2023/08/28 12:46:56;;;;;;;6.77;4.80;;;22.20;63.70;;;;;;5182638;28;20947;-45
2023/08/28 12:49:26;;;;;;;6.73;5.40;;;22.30;63.90;;;;;;5193875;28;20438;-45
2023/08/28 12:51:59;;;;;;;3.10;2.90;;;22.50;64.00;;;;;;5181956;28;20444;-46
2023/08/28 12:54:30;;;;;;;1.43;1.23;;;22.80;61.90;;;;;;5191978;28;20185;-45
2023/08/28 12:57:00;;;;;;;7.13;0.90;;;22.80;61.80;;;;;;5193398;28;20462;-46
2023/08/28 12:59:32;;;;;;;1.90;0.90;;;23.00;61.40;;;;;;5183870;28;20179;-45
2023/08/28 13:02:03;;;;;;;3.23;1.07;;;22.80;60.80;;;;;;5186628;28;20286;-45
2023/08/28 13:04:35;;;;;;;1.20;1.10;;;22.20;61.70;;;;;;5187454;28;20934;-45
2023/08/28 13:07:05;;;;;;;2.73;1.27;;;22.00;63.30;;;;;;5197671;28;20462;-46
2023/08/28 13:09:36;;;;;;;1.80;1.70;;;22.20;63.90;;;;;;5187049;28;20941;-45